Archival Weather

Chicago O'Hare International

Chicago, Illinois (KORD)

Report from: Tuesday, December 27, 2022 3:51 PM CST
Current time: Friday, June 14, 2024 7:54 AM CDT

Current weather – Weather history – Daily summaries
Weather forecast

Temperature-4.4°C (24.1°F)
Wind chill-11.7°C (11.0°F)
Dew point-10.6°C (12.9°F)
Winds 14 kts (7.2 m/s, 16.1 mph) South (190°)
Wind gusts 22 kts (11.3 m/s, 25.3 mph)
Visibility10 mi. (16.1 km)
Clouds Ceiling: Broken clouds 25,000 ft. (7,620 m)
Altimeter30.01 in.Hg (1016 mB)
Relative humidity62 %
Density altitude-2,487 ft. (-758 m)
Sea-level pressure101.7 kPa (1017 mB, 30.04 in.Hg)
Remarks Automated weather observing station with precipitation discriminator
Flight conditions Visual Meteorological Conditions
Raw dataKORD 272151Z 19014G22KT 10SM BKN250 M04/M11 A3001 RMK AO2 SLP173 T10441106
An error has occurred. This application may no longer respond until reloaded. Reload 🗙